sensor_id;sensor_type;location;lat;lon;timestamp;pressure;altitude;pressure_sealevel;temperature;humidity
57056;BME280;42945;51.718;5.324;2023-06-10T00:02:20;101067.22;;;19.45;100.00
57056;BME280;42945;51.718;5.324;2023-06-10T00:04:45;101165.44;;;20.10;100.00
57056;BME280;42945;51.718;5.324;2023-06-10T00:07:11;101036.38;;;19.40;100.00
57056;BME280;42945;51.718;5.324;2023-06-10T00:09:39;101150.69;;;20.04;100.00
57056;BME280;42945;51.718;5.324;2023-06-10T00:12:06;101118.38;;;20.04;100.00
57056;BME280;42945;51.718;5.324;2023-06-10T00:14:39;101003.41;;;19.28;100.00
57056;BME280;42945;51.718;5.324;2023-06-10T00:17:05;101164.59;;;19.90;100.00
57056;BME280;42945;51.718;5.324;2023-06-10T00:19:36;101083.38;;;19.55;100.00
57056;BME280;42945;51.718;5.324;2023-06-10T00:22:01;101178.63;;;19.83;100.00
57056;BME280;42945;51.718;5.324;2023-06-10T00:24:26;101116.84;;;19.72;100.00
57056;BME280;42945;51.718;5.324;2023-06-10T00:26:52;101208.94;;;20.24;100.00
57056;BME280;42945;51.718;5.324;2023-06-10T00:29:17;101045.94;;;18.94;100.00
57056;BME280;42945;51.718;5.324;2023-06-10T00:31:44;101158.97;;;19.52;100.00
57056;BME280;42945;51.718;5.324;2023-06-10T00:34:10;101127.09;;;19.38;100.00
57056;BME280;42945;51.718;5.324;2023-06-10T00:36:35;101126.41;;;19.36;100.00
57056;BME280;42945;51.718;5.324;2023-06-10T00:39:01;101106.03;;;19.33;100.00
57056;BME280;42945;51.718;5.324;2023-06-10T00:41:26;101147.31;;;19.22;100.00
57056;BME280;42945;51.718;5.324;2023-06-10T00:43:52;101162.59;;;19.22;100.00
57056;BME280;42945;51.718;5.324;2023-06-10T00:46:17;101174.44;;;19.10;100.00
57056;BME280;42945;51.718;5.324;2023-06-10T00:48:44;101167.47;;;18.97;100.00
57056;BME280;42945;51.718;5.324;2023-06-10T00:51:10;101180.59;;;18.91;100.00
57056;BME280;42945;51.718;5.324;2023-06-10T00:53:39;100971.19;;;17.34;100.00
57056;BME280;42945;51.718;5.324;2023-06-10T00:56:04;101237.50;;;19.05;100.00
57056;BME280;42945;51.718;5.324;2023-06-10T00:58:30;101129.28;;;18.42;100.00
57056;BME280;42945;51.718;5.324;2023-06-10T01:00:56;101114.13;;;18.41;100.00
57056;BME280;42945;51.718;5.324;2023-06-10T01:03:23;101131.22;;;18.40;100.00
57056;BME280;42945;51.718;5.324;2023-06-10T01:05:53;101195.03;;;18.26;100.00
57056;BME280;42945;51.718;5.324;2023-06-10T01:11:35;101181.81;;;18.02;100.00
57056;BME280;42945;51.718;5.324;2023-06-10T01:14:03;101150.84;;;17.98;100.00
57056;BME280;42945;51.718;5.324;2023-06-10T01:16:30;101195.66;;;17.86;100.00
57056;BME280;42945;51.718;5.324;2023-06-10T01:18:56;101166.16;;;17.75;100.00
57056;BME280;42945;51.718;5.324;2023-06-10T01:21:22;101137.00;;;17.82;100.00
57056;BME280;42945;51.718;5.324;2023-06-10T01:23:54;101153.47;;;17.77;100.00
57056;BME280;42945;51.718;5.324;2023-06-10T01:26:24;101188.13;;;17.69;100.00
57056;BME280;42945;51.718;5.324;2023-06-10T01:28:56;101127.03;;;17.73;100.00
57056;BME280;42945;51.718;5.324;2023-06-10T01:31:34;101199.06;;;17.77;100.00
57056;BME280;42945;51.718;5.324;2023-06-10T01:34:05;101162.53;;;17.65;100.00
57056;BME280;42945;51.718;5.324;2023-06-10T01:36:33;101186.66;;;17.65;100.00
57056;BME280;42945;51.718;5.324;2023-06-10T01:39:00;101201.22;;;17.51;100.00
57056;BME280;42945;51.718;5.324;2023-06-10T01:41:26;101151.72;;;17.44;100.00
57056;BME280;42945;51.718;5.324;2023-06-10T01:43:51;101185.03;;;17.41;100.00
57056;BME280;42945;51.718;5.324;2023-06-10T01:46:17;101195.03;;;17.39;100.00
57056;BME280;42945;51.718;5.324;2023-06-10T01:48:46;101119.13;;;17.27;100.00
57056;BME280;42945;51.718;5.324;2023-06-10T01:51:12;101178.69;;;17.31;100.00
57056;BME280;42945;51.718;5.324;2023-06-10T01:53:37;101227.44;;;17.25;100.00
57056;BME280;42945;51.718;5.324;2023-06-10T01:56:02;101163.09;;;17.13;100.00
57056;BME280;42945;51.718;5.324;2023-06-10T01:58:28;101163.97;;;17.25;100.00
57056;BME280;42945;51.718;5.324;2023-06-10T02:00:53;101063.84;;;17.04;100.00
57056;BME280;42945;51.718;5.324;2023-06-10T02:03:18;101221.94;;;17.04;100.00
57056;BME280;42945;51.718;5.324;2023-06-10T02:05:43;101192.59;;;16.91;100.00
57056;BME280;42945;51.718;5.324;2023-06-10T02:08:09;101207.06;;;17.00;100.00
57056;BME280;42945;51.718;5.324;2023-06-10T02:10:34;101126.47;;;16.91;100.00
57056;BME280;42945;51.718;5.324;2023-06-10T02:13:00;101149.00;;;16.89;100.00
57056;BME280;42945;51.718;5.324;2023-06-10T02:15:25;101030.50;;;16.06;100.00
57056;BME280;42945;51.718;5.324;2023-06-10T02:17:51;101082.31;;;16.05;100.00
57056;BME280;42945;51.718;5.324;2023-06-10T02:20:16;101101.63;;;15.98;100.00
57056;BME280;42945;51.718;5.324;2023-06-10T02:22:42;101090.44;;;16.04;100.00
57056;BME280;42945;51.718;5.324;2023-06-10T02:25:08;100976.66;;;15.29;100.00
57056;BME280;42945;51.718;5.324;2023-06-10T02:27:34;101221.34;;;16.53;100.00
57056;BME280;42945;51.718;5.324;2023-06-10T02:29:59;101245.16;;;16.45;100.00
57056;BME280;42945;51.718;5.324;2023-06-10T02:32:25;101097.66;;;15.79;100.00
57056;BME280;42945;51.718;5.324;2023-06-10T02:34:51;101227.78;;;16.51;100.00
57056;BME280;42945;51.718;5.324;2023-06-10T02:37:16;101075.91;;;15.84;100.00
57056;BME280;42945;51.718;5.324;2023-06-10T02:39:42;101206.22;;;16.41;100.00
57056;BME280;42945;51.718;5.324;2023-06-10T02:42:07;100992.31;;;14.98;100.00
57056;BME280;42945;51.718;5.324;2023-06-10T02:44:33;101162.88;;;16.25;100.00
57056;BME280;42945;51.718;5.324;2023-06-10T02:46:58;101234.78;;;16.29;100.00
57056;BME280;42945;51.718;5.324;2023-06-10T02:49:24;101048.72;;;15.66;100.00
57056;BME280;42945;51.718;5.324;2023-06-10T02:51:52;101323.50;;;16.96;100.00
57056;BME280;42945;51.718;5.324;2023-06-10T02:54:19;101225.22;;;16.14;100.00
57056;BME280;42945;51.718;5.324;2023-06-10T02:56:45;101190.19;;;16.06;100.00
57056;BME280;42945;51.718;5.324;2023-06-10T02:59:11;101210.84;;;16.04;100.00
57056;BME280;42945;51.718;5.324;2023-06-10T03:01:36;101141.09;;;15.70;100.00
57056;BME280;42945;51.718;5.324;2023-06-10T03:04:05;101141.97;;;15.94;100.00
57056;BME280;42945;51.718;5.324;2023-06-10T03:06:30;101202.22;;;15.87;100.00
57056;BME280;42945;51.718;5.324;2023-06-10T03:08:59;101197.88;;;15.86;100.00
57056;BME280;42945;51.718;5.324;2023-06-10T03:11:25;101178.69;;;15.92;100.00
57056;BME280;42945;51.718;5.324;2023-06-10T03:13:51;101243.28;;;15.99;100.00
57056;BME280;42945;51.718;5.324;2023-06-10T03:16:17;101189.78;;;15.75;100.00
57056;BME280;42945;51.718;5.324;2023-06-10T03:18:43;101206.69;;;15.75;100.00
57056;BME280;42945;51.718;5.324;2023-06-10T03:21:09;101200.38;;;15.77;100.00
57056;BME280;42945;51.718;5.324;2023-06-10T03:23:34;101224.19;;;15.80;100.00
57056;BME280;42945;51.718;5.324;2023-06-10T03:25:59;101082.44;;;15.07;100.00
57056;BME280;42945;51.718;5.324;2023-06-10T03:28:25;101115.66;;;15.16;100.00
57056;BME280;42945;51.718;5.324;2023-06-10T03:30:51;101227.69;;;15.93;100.00
57056;BME280;42945;51.718;5.324;2023-06-10T03:33:17;101268.38;;;15.85;100.00
57056;BME280;42945;51.718;5.324;2023-06-10T03:35:42;101208.41;;;15.64;100.00
57056;BME280;42945;51.718;5.324;2023-06-10T03:38:07;101063.47;;;14.86;100.00
57056;BME280;42945;51.718;5.324;2023-06-10T03:40:32;101205.94;;;15.73;100.00
57056;BME280;42945;51.718;5.324;2023-06-10T03:42:58;101211.59;;;15.69;100.00
57056;BME280;42945;51.718;5.324;2023-06-10T03:45:23;101229.34;;;15.70;100.00
57056;BME280;42945;51.718;5.324;2023-06-10T03:47:49;101100.69;;;15.13;100.00
57056;BME280;42945;51.718;5.324;2023-06-10T03:50:15;101230.31;;;15.69;100.00
57056;BME280;42945;51.718;5.324;2023-06-10T03:52:41;101217.91;;;15.68;100.00
57056;BME280;42945;51.718;5.324;2023-06-10T03:55:06;101247.09;;;15.71;100.00
57056;BME280;42945;51.718;5.324;2023-06-10T03:57:32;101129.69;;;15.07;100.00
57056;BME280;42945;51.718;5.324;2023-06-10T03:59:58;101205.41;;;15.68;100.00
57056;BME280;42945;51.718;5.324;2023-06-10T04:02:23;101207.66;;;15.74;100.00
57056;BME280;42945;51.718;5.324;2023-06-10T04:04:48;100995.00;;;14.35;100.00
57056;BME280;42945;51.718;5.324;2023-06-10T04:07:14;101263.44;;;15.92;100.00
57056;BME280;42945;51.718;5.324;2023-06-10T04:09:39;101189.88;;;15.73;100.00
57056;BME280;42945;51.718;5.324;2023-06-10T04:12:05;101337.56;;;16.51;100.00
57056;BME280;42945;51.718;5.324;2023-06-10T04:14:35;101236.63;;;15.81;100.00
57056;BME280;42945;51.718;5.324;2023-06-10T04:17:02;101259.16;;;15.89;100.00
57056;BME280;42945;51.718;5.324;2023-06-10T04:19:28;101223.13;;;15.82;100.00
57056;BME280;42945;51.718;5.324;2023-06-10T04:21:53;101198.97;;;15.71;100.00
57056;BME280;42945;51.718;5.324;2023-06-10T04:24:19;101261.03;;;16.00;100.00
57056;BME280;42945;51.718;5.324;2023-06-10T04:26:44;101223.41;;;15.90;100.00
57056;BME280;42945;51.718;5.324;2023-06-10T04:29:10;101218.34;;;16.23;100.00
57056;BME280;42945;51.718;5.324;2023-06-10T04:31:35;101234.03;;;16.27;100.00
57056;BME280;42945;51.718;5.324;2023-06-10T04:34:01;101137.50;;;15.58;100.00
57056;BME280;42945;51.718;5.324;2023-06-10T04:36:26;101228.47;;;16.42;100.00
57056;BME280;42945;51.718;5.324;2023-06-10T04:38:54;101239.34;;;16.51;100.00
57056;BME280;42945;51.718;5.324;2023-06-10T04:41:19;101267.00;;;16.63;100.00
57056;BME280;42945;51.718;5.324;2023-06-10T04:43:45;101167.22;;;16.14;100.00
57056;BME280;42945;51.718;5.324;2023-06-10T04:46:10;101259.69;;;16.89;100.00
57056;BME280;42945;51.718;5.324;2023-06-10T04:48:35;101265.53;;;16.83;100.00
57056;BME280;42945;51.718;5.324;2023-06-10T04:51:01;101258.25;;;16.97;100.00
57056;BME280;42945;51.718;5.324;2023-06-10T04:53:26;101035.47;;;15.64;100.00
57056;BME280;42945;51.718;5.324;2023-06-10T04:55:52;101244.88;;;17.08;100.00
57056;BME280;42945;51.718;5.324;2023-06-10T04:58:17;101166.47;;;16.48;100.00
57056;BME280;42945;51.718;5.324;2023-06-10T05:00:43;101226.47;;;17.15;100.00
57056;BME280;42945;51.718;5.324;2023-06-10T05:03:08;101296.88;;;17.50;100.00
57056;BME280;42945;51.718;5.324;2023-06-10T05:05:34;101266.41;;;17.51;100.00
57056;BME280;42945;51.718;5.324;2023-06-10T05:07:59;101240.31;;;17.65;100.00
57056;BME280;42945;51.718;5.324;2023-06-10T05:10:24;101281.63;;;17.85;100.00
57056;BME280;42945;51.718;5.324;2023-06-10T05:12:50;101138.50;;;17.20;100.00
57056;BME280;42945;51.718;5.324;2023-06-10T05:15:15;101279.06;;;17.95;100.00
57056;BME280;42945;51.718;5.324;2023-06-10T05:17:41;101101.41;;;17.36;100.00
57056;BME280;42945;51.718;5.324;2023-06-10T05:20:07;101269.00;;;18.19;100.00
57056;BME280;42945;51.718;5.324;2023-06-10T05:22:33;101231.88;;;18.24;100.00
57056;BME280;42945;51.718;5.324;2023-06-10T05:24:59;101223.19;;;18.32;100.00
57056;BME280;42945;51.718;5.324;2023-06-10T05:27:24;101224.75;;;18.35;100.00
57056;BME280;42945;51.718;5.324;2023-06-10T05:29:50;101240.47;;;18.60;100.00
57056;BME280;42945;51.718;5.324;2023-06-10T05:32:17;101188.34;;;18.42;100.00
57056;BME280;42945;51.718;5.324;2023-06-10T05:34:42;101245.59;;;18.63;100.00
57056;BME280;42945;51.718;5.324;2023-06-10T05:37:07;101276.66;;;18.77;100.00
57056;BME280;42945;51.718;5.324;2023-06-10T05:39:35;101237.41;;;18.86;100.00
57056;BME280;42945;51.718;5.324;2023-06-10T05:42:03;101213.09;;;18.87;100.00
57056;BME280;42945;51.718;5.324;2023-06-10T05:44:29;101258.59;;;19.00;100.00
57056;BME280;42945;51.718;5.324;2023-06-10T05:46:54;101267.28;;;19.44;100.00
57056;BME280;42945;51.718;5.324;2023-06-10T05:49:19;101228.13;;;19.31;100.00
57056;BME280;42945;51.718;5.324;2023-06-10T05:51:45;101141.59;;;18.96;100.00
57056;BME280;42945;51.718;5.324;2023-06-10T05:54:10;101249.22;;;19.25;100.00
57056;BME280;42945;51.718;5.324;2023-06-10T05:56:35;101172.84;;;18.76;100.00
57056;BME280;42945;51.718;5.324;2023-06-10T05:59:01;101232.69;;;19.30;100.00
57056;BME280;42945;51.718;5.324;2023-06-10T06:01:26;101247.34;;;19.57;100.00
57056;BME280;42945;51.718;5.324;2023-06-10T06:03:51;101250.16;;;19.45;100.00
57056;BME280;42945;51.718;5.324;2023-06-10T06:06:16;101180.09;;;19.06;100.00
57056;BME280;42945;51.718;5.324;2023-06-10T06:08:42;101215.81;;;19.68;100.00
57056;BME280;42945;51.718;5.324;2023-06-10T06:11:07;101280.00;;;19.73;100.00
57056;BME280;42945;51.718;5.324;2023-06-10T06:13:33;101248.88;;;19.90;100.00
57056;BME280;42945;51.718;5.324;2023-06-10T06:15:58;101248.31;;;20.06;100.00
57056;BME280;42945;51.718;5.324;2023-06-10T06:18:23;101221.13;;;19.90;100.00
57056;BME280;42945;51.718;5.324;2023-06-10T06:20:49;101207.38;;;20.12;100.00
57056;BME280;42945;51.718;5.324;2023-06-10T06:23:14;101247.22;;;20.18;100.00
57056;BME280;42945;51.718;5.324;2023-06-10T06:25:40;101251.88;;;20.06;100.00
57056;BME280;42945;51.718;5.324;2023-06-10T06:28:06;101229.22;;;20.29;100.00
57056;BME280;42945;51.718;5.324;2023-06-10T06:30:32;101240.09;;;20.56;100.00
57056;BME280;42945;51.718;5.324;2023-06-10T06:32:57;101263.78;;;20.53;100.00
57056;BME280;42945;51.718;5.324;2023-06-10T06:35:22;101197.66;;;20.78;100.00
57056;BME280;42945;51.718;5.324;2023-06-10T06:37:48;102125.81;;;26.29;100.00
57056;BME280;42945;51.718;5.324;2023-06-10T06:40:13;101351.25;;;21.46;100.00
57056;BME280;42945;51.718;5.324;2023-06-10T06:42:39;101277.34;;;21.10;100.00
57056;BME280;42945;51.718;5.324;2023-06-10T06:45:04;101239.81;;;21.16;100.00
57056;BME280;42945;51.718;5.324;2023-06-10T06:47:30;101210.81;;;21.28;100.00
57056;BME280;42945;51.718;5.324;2023-06-10T06:49:55;101224.56;;;21.45;100.00
57056;BME280;42945;51.718;5.324;2023-06-10T06:52:20;101240.13;;;21.51;100.00
57056;BME280;42945;51.718;5.324;2023-06-10T06:54:47;101231.59;;;21.55;100.00
57056;BME280;42945;51.718;5.324;2023-06-10T06:57:12;101211.00;;;21.54;46.93
57056;BME280;42945;51.718;5.324;2023-06-10T06:59:38;101131.50;;;20.93;100.00
57056;BME280;42945;51.718;5.324;2023-06-10T07:02:05;101260.13;;;21.86;100.00
57056;BME280;42945;51.718;5.324;2023-06-10T07:04:30;101232.97;;;22.05;99.94
57056;BME280;42945;51.718;5.324;2023-06-10T07:06:56;101252.63;;;21.97;99.43
57056;BME280;42945;51.718;5.324;2023-06-10T07:09:21;101236.56;;;22.14;98.92
57056;BME280;42945;51.718;5.324;2023-06-10T07:11:47;101235.75;;;22.13;93.76
57056;BME280;42945;51.718;5.324;2023-06-10T07:14:12;101263.31;;;22.35;93.75
57056;BME280;42945;51.718;5.324;2023-06-10T07:16:37;101256.03;;;22.71;95.99
57056;BME280;42945;51.718;5.324;2023-06-10T07:19:03;101195.53;;;22.72;95.12
57056;BME280;42945;51.718;5.324;2023-06-10T07:21:29;101223.31;;;22.83;90.77
57056;BME280;42945;51.718;5.324;2023-06-10T07:23:55;101230.97;;;23.13;91.60
57056;BME280;42945;51.718;5.324;2023-06-10T07:26:22;101225.69;;;22.59;93.34
57056;BME280;42945;51.718;5.324;2023-06-10T07:28:47;101240.97;;;22.95;92.06
57056;BME280;42945;51.718;5.324;2023-06-10T07:31:12;101226.75;;;22.93;90.83
57056;BME280;42945;51.718;5.324;2023-06-10T07:33:38;101310.88;;;23.68;88.41
57056;BME280;42945;51.718;5.324;2023-06-10T07:36:05;101262.94;;;23.18;86.84
57056;BME280;42945;51.718;5.324;2023-06-10T07:38:30;101245.63;;;23.11;86.72
57056;BME280;42945;51.718;5.324;2023-06-10T07:40:56;101256.66;;;23.09;83.38
57056;BME280;42945;51.718;5.324;2023-06-10T07:43:21;101219.22;;;23.31;83.71
57056;BME280;42945;51.718;5.324;2023-06-10T07:45:47;101275.94;;;23.49;85.53
57056;BME280;42945;51.718;5.324;2023-06-10T07:48:12;101172.47;;;22.60;81.71
57056;BME280;42945;51.718;5.324;2023-06-10T07:50:37;101388.72;;;24.43;82.48
57056;BME280;42945;51.718;5.324;2023-06-10T07:53:03;101185.13;;;23.63;78.63
57056;BME280;42945;51.718;5.324;2023-06-10T07:55:29;101255.13;;;23.84;76.31
57056;BME280;42945;51.718;5.324;2023-06-10T07:57:54;101356.25;;;24.92;77.31
57056;BME280;42945;51.718;5.324;2023-06-10T08:00:20;101239.91;;;23.99;76.34
57056;BME280;42945;51.718;5.324;2023-06-10T08:02:46;101250.78;;;24.32;77.88
57056;BME280;42945;51.718;5.324;2023-06-10T08:05:12;101110.50;;;23.76;77.41
57056;BME280;42945;51.718;5.324;2023-06-10T08:07:37;101238.44;;;24.70;80.87
57056;BME280;42945;51.718;5.324;2023-06-10T08:10:05;101260.78;;;24.31;72.90
57056;BME280;42945;51.718;5.324;2023-06-10T08:12:30;101197.75;;;24.46;73.89
57056;BME280;42945;51.718;5.324;2023-06-10T08:14:56;101243.69;;;24.80;73.58
57056;BME280;42945;51.718;5.324;2023-06-10T08:17:21;101258.75;;;24.91;70.16
57056;BME280;42945;51.718;5.324;2023-06-10T08:19:48;101255.84;;;25.01;70.29
57056;BME280;42945;51.718;5.324;2023-06-10T08:22:13;101241.13;;;24.87;68.29
57056;BME280;42945;51.718;5.324;2023-06-10T08:24:39;101243.81;;;25.03;67.29
57056;BME280;42945;51.718;5.324;2023-06-10T08:27:05;101135.94;;;24.25;68.01
57056;BME280;42945;51.718;5.324;2023-06-10T08:29:31;101254.28;;;25.23;66.74
57056;BME280;42945;51.718;5.324;2023-06-10T08:31:57;101276.69;;;25.25;67.85
57056;BME280;42945;51.718;5.324;2023-06-10T08:34:22;101218.19;;;25.53;67.40
57056;BME280;42945;51.718;5.324;2023-06-10T08:36:48;101287.09;;;25.52;62.67
57056;BME280;42945;51.718;5.324;2023-06-10T08:39:19;101256.97;;;25.70;60.13
57056;BME280;42945;51.718;5.324;2023-06-10T08:41:51;101246.53;;;25.59;61.63
57056;BME280;42945;51.718;5.324;2023-06-10T08:44:27;101156.72;;;24.73;61.12
57056;BME280;42945;51.718;5.324;2023-06-10T08:46:55;101251.63;;;25.54;62.47
57056;BME280;42945;51.718;5.324;2023-06-10T08:49:29;101198.97;;;25.55;61.21
57056;BME280;42945;51.718;5.324;2023-06-10T08:51:59;101183.00;;;25.60;61.25
57056;BME280;42945;51.718;5.324;2023-06-10T08:54:30;101174.53;;;25.24;61.45
57056;BME280;42945;51.718;5.324;2023-06-10T08:56:57;101370.84;;;25.88;61.28
57056;BME280;42945;51.718;5.324;2023-06-10T08:59:25;101253.91;;;25.73;60.76
57056;BME280;42945;51.718;5.324;2023-06-10T09:01:52;101241.72;;;26.24;59.31
57056;BME280;42945;51.718;5.324;2023-06-10T09:04:18;101232.53;;;26.25;58.75
57056;BME280;42945;51.718;5.324;2023-06-10T09:06:44;101145.88;;;25.52;54.80
57056;BME280;42945;51.718;5.324;2023-06-10T09:09:12;101246.06;;;26.33;55.61
57056;BME280;42945;51.718;5.324;2023-06-10T09:11:39;101225.47;;;26.53;55.20
57056;BME280;42945;51.718;5.324;2023-06-10T09:14:05;101153.97;;;25.84;55.54
57056;BME280;42945;51.718;5.324;2023-06-10T09:16:31;101251.25;;;26.66;56.18
57056;BME280;42945;51.718;5.324;2023-06-10T09:18:56;101234.28;;;26.56;55.77
57056;BME280;42945;51.718;5.324;2023-06-10T09:21:25;101250.38;;;26.42;54.37
57056;BME280;42945;51.718;5.324;2023-06-10T09:23:51;101269.66;;;26.56;55.12
57056;BME280;42945;51.718;5.324;2023-06-10T09:26:17;101283.09;;;26.80;53.71
57056;BME280;42945;51.718;5.324;2023-06-10T09:28:44;101213.88;;;26.60;53.82
57056;BME280;42945;51.718;5.324;2023-06-10T09:31:12;101247.88;;;26.79;52.95
57056;BME280;42945;51.718;5.324;2023-06-10T09:33:39;101163.72;;;26.62;53.70
57056;BME280;42945;51.718;5.324;2023-06-10T09:36:06;101198.16;;;26.85;53.37
57056;BME280;42945;51.718;5.324;2023-06-10T09:38:32;101123.91;;;25.85;54.43
57056;BME280;42945;51.718;5.324;2023-06-10T09:41:03;101192.00;;;26.91;55.50
57056;BME280;42945;51.718;5.324;2023-06-10T09:46:03;101231.66;;;26.70;54.54
57056;BME280;42945;51.718;5.324;2023-06-10T09:48:29;101265.38;;;26.99;55.02
57056;BME280;42945;51.718;5.324;2023-06-10T09:50:54;101233.94;;;27.11;54.89
57056;BME280;42945;51.718;5.324;2023-06-10T09:53:20;101094.00;;;26.46;54.27
57056;BME280;42945;51.718;5.324;2023-06-10T09:55:46;101356.63;;;27.93;53.63
57056;BME280;42945;51.718;5.324;2023-06-10T09:58:11;101110.88;;;26.57;52.09
57056;BME280;42945;51.718;5.324;2023-06-10T10:00:38;101205.38;;;27.37;53.17
57056;BME280;42945;51.718;5.324;2023-06-10T10:03:03;101267.47;;;27.42;51.29
57056;BME280;42945;51.718;5.324;2023-06-10T10:05:28;100994.41;;;28.11;53.73
57056;BME280;42945;51.718;5.324;2023-06-10T10:07:55;101210.69;;;27.60;55.03
57056;BME280;42945;51.718;5.324;2023-06-10T10:10:21;101214.00;;;27.56;58.16
57056;BME280;42945;51.718;5.324;2023-06-10T10:12:48;101276.13;;;27.45;61.03
57056;BME280;42945;51.718;5.324;2023-06-10T10:15:17;101140.72;;;27.24;58.81
57056;BME280;42945;51.718;5.324;2023-06-10T10:17:53;101209.66;;;27.61;57.01
57056;BME280;42945;51.718;5.324;2023-06-10T10:20:27;101128.00;;;26.42;59.65
57056;BME280;42945;51.718;5.324;2023-06-10T10:22:57;101222.19;;;27.56;60.67
57056;BME280;42945;51.718;5.324;2023-06-10T10:25:25;101216.38;;;27.80;60.32
57056;BME280;42945;51.718;5.324;2023-06-10T10:28:13;101104.84;;;27.36;60.70
57056;BME280;42945;51.718;5.324;2023-06-10T10:30:42;101063.06;;;27.14;60.49
57056;BME280;42945;51.718;5.324;2023-06-10T10:33:15;101216.38;;;27.80;61.24
57056;BME280;42945;51.718;5.324;2023-06-10T10:35:42;101235.56;;;28.08;58.24
57056;BME280;42945;51.718;5.324;2023-06-10T10:38:09;101105.19;;;26.81;59.92
57056;BME280;42945;51.718;5.324;2023-06-10T10:40:34;101204.16;;;27.91;62.59
57056;BME280;42945;51.718;5.324;2023-06-10T10:43:01;101195.25;;;27.46;61.02
57056;BME280;42945;51.718;5.324;2023-06-10T10:45:28;101073.38;;;26.67;57.98
57056;BME280;42945;51.718;5.324;2023-06-10T10:47:54;101231.69;;;27.81;59.21
57056;BME280;42945;51.718;5.324;2023-06-10T10:50:22;101212.69;;;27.52;58.14
57056;BME280;42945;51.718;5.324;2023-06-10T10:55:26;101217.53;;;28.07;59.25
57056;BME280;42945;51.718;5.324;2023-06-10T10:57:59;101221.25;;;27.48;56.61
57056;BME280;42945;51.718;5.324;2023-06-10T11:00:28;101047.75;;;26.91;56.24
57056;BME280;42945;51.718;5.324;2023-06-10T11:02:58;101238.34;;;27.57;57.38
57056;BME280;42945;51.718;5.324;2023-06-10T11:08:02;101210.78;;;28.25;55.63
57056;BME280;42945;51.718;5.324;2023-06-10T11:10:34;101101.25;;;27.57;54.12
57056;BME280;42945;51.718;5.324;2023-06-10T11:13:00;101191.34;;;28.35;51.99
57056;BME280;42945;51.718;5.324;2023-06-10T11:15:31;101183.06;;;28.21;51.37
57056;BME280;42945;51.718;5.324;2023-06-10T11:18:22;101066.88;;;27.77;53.03
57056;BME280;42945;51.718;5.324;2023-06-10T11:29:01;101200.13;;;28.86;50.43
57056;BME280;42945;51.718;5.324;2023-06-10T11:31:29;101199.31;;;28.36;50.24
57056;BME280;42945;51.718;5.324;2023-06-10T11:34:02;101087.19;;;27.96;48.78
57056;BME280;42945;51.718;5.324;2023-06-10T11:36:30;101057.19;;;28.53;48.39
57056;BME280;42945;51.718;5.324;2023-06-10T11:39:00;101038.19;;;28.38;47.69
57056;BME280;42945;51.718;5.324;2023-06-10T11:41:27;101277.19;;;30.07;49.44
57056;BME280;42945;51.718;5.324;2023-06-10T11:43:54;100835.16;;;29.47;45.76
57056;BME280;42945;51.718;5.324;2023-06-10T11:46:24;101194.53;;;29.30;45.19
57056;BME280;42945;51.718;5.324;2023-06-10T11:49:00;101194.75;;;29.00;44.14
57056;BME280;42945;51.718;5.324;2023-06-10T11:51:35;101134.97;;;29.73;44.04
57056;BME280;42945;51.718;5.324;2023-06-10T11:54:05;101172.44;;;30.19;42.49
57056;BME280;42945;51.718;5.324;2023-06-10T11:56:31;101119.81;;;29.77;44.90
57056;BME280;42945;51.718;5.324;2023-06-10T11:59:02;101128.66;;;29.73;41.52
57056;BME280;42945;51.718;5.324;2023-06-10T12:01:31;101163.50;;;29.64;40.82
57056;BME280;42945;51.718;5.324;2023-06-10T12:04:08;101046.88;;;28.96;40.58
57056;BME280;42945;51.718;5.324;2023-06-10T12:06:38;101032.63;;;29.01;39.70
57056;BME280;42945;51.718;5.324;2023-06-10T12:09:04;101185.47;;;30.04;41.10
57056;BME280;42945;51.718;5.324;2023-06-10T12:11:30;101145.91;;;30.20;39.22
57056;BME280;42945;51.718;5.324;2023-06-10T12:13:56;101155.19;;;30.06;38.86
57056;BME280;42945;51.718;5.324;2023-06-10T12:16:21;101174.75;;;30.69;39.69
57056;BME280;42945;51.718;5.324;2023-06-10T12:18:47;101118.38;;;30.01;38.87
57056;BME280;42945;51.718;5.324;2023-06-10T12:21:18;101125.09;;;29.79;41.87
57056;BME280;42945;51.718;5.324;2023-06-10T12:24:00;101120.88;;;29.96;39.02
57056;BME280;42945;51.718;5.324;2023-06-10T12:26:39;101106.75;;;30.53;39.38
57056;BME280;42945;51.718;5.324;2023-06-10T12:31:59;101190.75;;;30.72;40.05
57056;BME280;42945;51.718;5.324;2023-06-10T12:34:41;101129.09;;;29.96;39.16
57056;BME280;42945;51.718;5.324;2023-06-10T12:37:10;84929.00;;;-73.81;37.34
57056;BME280;42945;51.718;5.324;2023-06-10T12:39:39;101130.97;;;30.29;39.58
57056;BME280;42945;51.718;5.324;2023-06-10T12:42:04;101096.28;;;30.36;39.13
57056;BME280;42945;51.718;5.324;2023-06-10T12:44:35;101005.66;;;29.73;39.92
57056;BME280;42945;51.718;5.324;2023-06-10T12:47:09;101056.91;;;30.24;37.42
57056;BME280;42945;51.718;5.324;2023-06-10T12:49:36;101099.72;;;30.84;40.04
57056;BME280;42945;51.718;5.324;2023-06-10T12:52:03;101131.75;;;30.90;38.99
57056;BME280;42945;51.718;5.324;2023-06-10T12:54:28;100956.41;;;29.93;37.32
57056;BME280;42945;51.718;5.324;2023-06-10T12:56:53;101009.53;;;30.43;35.50
57056;BME280;42945;51.718;5.324;2023-06-10T12:59:19;101165.47;;;30.77;36.12
57056;BME280;42945;51.718;5.324;2023-06-10T13:01:50;101134.06;;;31.38;36.04
57056;BME280;42945;51.718;5.324;2023-06-10T13:04:16;101148.03;;;31.30;37.60
57056;BME280;42945;51.718;5.324;2023-06-10T13:06:41;101124.75;;;31.52;38.42